Time;durP1;ratioP1;P1;durP2;ratioP2;P2;SDS_P1;SDS_P2;PMS_P1;PMS_P2;Temp;Humidity;BMP_temperature;BMP_pressure;BME280_temperature;BME280_humidity;BME280_pressure;Samples;Min_cycle;Max_cycle;Signal;HPM_P1;HPM_P2
2022/07/06 00:01:12;;;;;;;2.72;1.30;;;21.50;40.70;;;;;;2310455;54;20953;-70
2022/07/06 00:03:38;;;;;;;1.02;0.40;;;21.40;40.70;;;;;;2309586;54;20953;-71
2022/07/06 00:06:05;;;;;;;1.10;0.50;;;21.40;40.80;;;;;;2309524;54;20940;-69
2022/07/06 00:08:32;;;;;;;1.23;0.50;;;21.30;40.80;;;;;;2309231;54;21679;-70
2022/07/06 00:10:58;;;;;;;0.98;0.43;;;21.30;40.80;;;;;;2309661;54;20977;-70
2022/07/06 00:13:26;;;;;;;1.62;0.50;;;21.30;40.90;;;;;;2308202;54;20943;-69
2022/07/06 00:15:53;;;;;;;1.05;0.47;;;21.20;40.90;;;;;;2308639;54;20933;-70
2022/07/06 00:18:22;;;;;;;1.23;0.47;;;21.20;41.00;;;;;;2317229;54;21113;-69
2022/07/06 00:20:48;;;;;;;1.70;0.60;;;21.20;41.10;;;;;;2358560;54;20925;-67
2022/07/06 00:23:15;;;;;;;0.85;0.47;;;21.10;41.10;;;;;;2442046;54;21911;-70
2022/07/06 00:25:41;;;;;;;1.17;0.50;;;21.10;41.30;;;;;;2313853;54;21092;-67
2022/07/06 00:28:07;;;;;;;1.40;0.60;;;21.00;41.30;;;;;;2310722;54;21004;-69
2022/07/06 00:30:37;;;;;;;1.20;0.50;;;21.00;41.40;;;;;;2308776;54;21001;-68
2022/07/06 00:33:03;;;;;;;0.93;0.57;;;21.00;41.60;;;;;;2354580;54;21819;-70
2022/07/06 00:35:29;;;;;;;1.27;0.50;;;20.90;41.70;;;;;;2307527;54;21779;-72
2022/07/06 00:37:55;;;;;;;3.03;0.60;;;20.90;41.70;;;;;;2308897;54;20921;-69
2022/07/06 00:40:22;;;;;;;1.20;0.60;;;20.90;41.80;;;;;;2308745;54;20993;-73
2022/07/06 00:42:48;;;;;;;1.60;0.50;;;20.80;41.80;;;;;;2312603;54;20933;-71
2022/07/06 00:45:15;;;;;;;1.10;0.52;;;20.80;41.80;;;;;;2310100;54;21005;-70
2022/07/06 00:47:42;;;;;;;1.87;0.60;;;20.70;41.80;;;;;;2309473;54;21029;-72
2022/07/06 00:50:15;;;;;;;1.05;0.50;;;20.70;41.90;;;;;;2314708;54;22089;-70
2022/07/06 00:52:42;;;;;;;1.83;0.52;;;20.70;42.00;;;;;;2310682;54;21886;-71
2022/07/06 00:55:09;;;;;;;1.08;0.50;;;20.60;42.00;;;;;;2310096;54;21323;-70
2022/07/06 00:57:36;;;;;;;2.37;0.40;;;20.60;42.20;;;;;;2310602;54;21025;-73
2022/07/06 01:00:04;;;;;;;1.35;0.52;;;20.60;42.20;;;;;;2317435;54;20982;-72
2022/07/06 01:02:33;;;;;;;1.30;0.60;;;20.50;42.20;;;;;;2308738;54;21111;-70
2022/07/06 01:05:00;;;;;;;1.77;0.62;;;20.50;42.40;;;;;;2318309;54;21008;-72
2022/07/06 01:07:26;;;;;;;1.33;0.60;;;20.40;42.40;;;;;;2310280;54;21486;-71
2022/07/06 01:09:54;;;;;;;0.70;0.40;;;20.40;42.30;;;;;;2314257;54;21642;-70
2022/07/06 01:12:20;;;;;;;1.00;0.50;;;20.30;42.30;;;;;;2311817;54;21017;-72
2022/07/06 01:14:49;;;;;;;1.40;0.47;;;20.30;42.40;;;;;;2311464;54;20992;-73
2022/07/06 01:17:16;;;;;;;1.58;0.55;;;20.30;42.50;;;;;;2310101;54;21068;-71
2022/07/06 01:19:46;;;;;;;2.22;0.80;;;20.20;42.50;;;;;;2310925;54;20924;-70
2022/07/06 01:22:14;;;;;;;1.17;0.50;;;20.20;42.50;;;;;;2355482;54;20993;-71
2022/07/06 01:24:40;;;;;;;1.67;0.57;;;20.10;42.50;;;;;;2315301;54;21391;-70
2022/07/06 01:27:07;;;;;;;1.80;0.88;;;20.10;42.60;;;;;;2316087;54;20901;-73
2022/07/06 01:29:37;;;;;;;1.42;0.70;;;20.10;42.70;;;;;;2318854;54;20975;-72
2022/07/06 01:32:04;;;;;;;2.00;0.70;;;20.10;42.80;;;;;;2297720;54;20933;-72
2022/07/06 01:34:30;;;;;;;1.37;0.55;;;20.00;42.70;;;;;;2315114;54;20998;-71
2022/07/06 01:36:57;;;;;;;1.05;0.60;;;19.90;42.70;;;;;;2309183;54;21000;-71
2022/07/06 01:39:23;;;;;;;2.17;0.80;;;19.90;42.80;;;;;;2309033;54;20969;-72
2022/07/06 01:41:49;;;;;;;2.62;0.70;;;19.90;42.90;;;;;;2309087;54;21016;-71
2022/07/06 01:44:17;;;;;;;1.48;0.70;;;19.80;42.90;;;;;;2309571;54;20926;-71
2022/07/06 01:46:45;;;;;;;1.12;0.60;;;19.80;43.10;;;;;;2488011;54;20974;-71
2022/07/06 01:49:12;;;;;;;2.25;0.57;;;19.80;43.20;;;;;;2294310;55;20929;-73
2022/07/06 01:51:41;;;;;;;0.77;0.40;;;19.80;43.30;;;;;;2512001;54;21005;-72
2022/07/06 01:54:09;;;;;;;2.08;0.80;;;19.70;43.40;;;;;;2310264;54;20917;-73
2022/07/06 01:56:37;;;;;;;1.48;0.60;;;19.70;43.60;;;;;;2416630;54;20913;-70
2022/07/06 01:59:03;;;;;;;1.62;0.70;;;19.60;43.50;;;;;;2312919;54;20945;-73
2022/07/06 02:01:30;;;;;;;1.90;0.73;;;19.60;43.60;;;;;;2315608;54;21033;-70
2022/07/06 02:03:57;;;;;;;1.37;0.50;;;19.60;43.70;;;;;;2310131;54;20941;-71
2022/07/06 02:06:23;;;;;;;2.22;0.90;;;19.60;43.90;;;;;;2311303;54;21894;-72
2022/07/06 02:08:51;;;;;;;1.80;0.65;;;19.50;43.90;;;;;;2310755;54;20905;-69
2022/07/06 02:11:17;;;;;;;1.23;0.60;;;19.60;44.00;;;;;;2311924;54;20960;-71
2022/07/06 02:13:44;;;;;;;1.90;0.70;;;19.50;44.00;;;;;;2554664;54;21001;-69
2022/07/06 02:16:10;;;;;;;1.45;0.68;;;19.50;44.10;;;;;;2316589;54;20942;-71
2022/07/06 02:18:36;;;;;;;1.75;0.70;;;19.50;44.20;;;;;;2312331;54;20933;-72
2022/07/06 02:21:04;;;;;;;1.73;0.75;;;19.40;44.20;;;;;;2438484;54;20961;-70
2022/07/06 02:23:30;;;;;;;1.37;0.60;;;19.40;44.30;;;;;;2344380;54;21002;-70
2022/07/06 02:25:56;;;;;;;2.37;0.90;;;19.40;44.30;;;;;;2311289;54;20909;-72
2022/07/06 02:28:23;;;;;;;1.17;0.50;;;19.40;44.40;;;;;;2313078;54;21079;-70
2022/07/06 02:30:51;;;;;;;2.58;0.80;;;19.30;44.30;;;;;;2311894;54;20973;-71
2022/07/06 02:33:17;;;;;;;1.75;0.77;;;19.30;44.40;;;;;;2317253;54;21072;-73
2022/07/06 02:35:44;;;;;;;2.08;0.70;;;19.30;44.50;;;;;;2380063;54;21844;-70
2022/07/06 02:38:11;;;;;;;1.60;0.70;;;19.30;44.60;;;;;;2311654;54;20985;-71
2022/07/06 02:40:38;;;;;;;1.33;0.60;;;19.20;44.60;;;;;;2343666;54;21738;-71
2022/07/06 02:43:04;;;;;;;2.17;0.70;;;19.20;44.60;;;;;;2311029;54;20996;-73
2022/07/06 02:45:31;;;;;;;1.27;0.70;;;19.20;44.80;;;;;;2311434;54;21433;-72
2022/07/06 02:47:58;;;;;;;4.50;0.80;;;19.20;44.90;;;;;;2311075;54;20925;-70
2022/07/06 02:50:24;;;;;;;1.85;0.88;;;19.10;44.90;;;;;;2311491;54;20929;-71
2022/07/06 02:52:52;;;;;;;1.20;0.65;;;19.10;45.00;;;;;;2311549;54;20914;-69
2022/07/06 02:55:18;;;;;;;2.20;0.77;;;19.10;45.00;;;;;;2316236;54;20990;-69
2022/07/06 02:57:45;;;;;;;2.65;0.80;;;19.10;45.20;;;;;;2312225;54;20949;-70
2022/07/06 03:00:12;;;;;;;2.62;1.00;;;19.10;45.30;;;;;;2311342;54;20913;-73
2022/07/06 03:02:38;;;;;;;2.12;0.95;;;19.00;45.30;;;;;;2336504;54;20953;-70
2022/07/06 03:05:05;;;;;;;1.98;0.68;;;19.00;45.30;;;;;;2311118;54;20909;-72
2022/07/06 03:07:31;;;;;;;1.85;0.90;;;19.00;45.40;;;;;;2317390;54;20953;-71
2022/07/06 03:09:58;;;;;;;2.03;0.90;;;19.00;45.40;;;;;;2317295;54;20918;-71
2022/07/06 03:12:24;;;;;;;1.87;0.70;;;19.00;45.40;;;;;;2441536;54;20929;-69
2022/07/06 03:14:50;;;;;;;1.55;0.60;;;19.00;45.50;;;;;;2311536;54;20982;-73
2022/07/06 03:17:17;;;;;;;1.70;0.80;;;19.00;45.60;;;;;;2310755;54;21497;-73
2022/07/06 03:19:43;;;;;;;2.17;0.80;;;18.90;45.60;;;;;;2420060;54;21002;-70
2022/07/06 03:22:09;;;;;;;2.20;1.00;;;18.90;45.60;;;;;;2311742;54;21752;-72
2022/07/06 03:24:36;;;;;;;1.60;0.73;;;18.90;45.70;;;;;;2311261;54;20945;-72
2022/07/06 03:27:03;;;;;;;1.98;0.88;;;18.90;45.80;;;;;;2311052;54;20918;-69
2022/07/06 03:29:30;;;;;;;1.65;0.80;;;18.90;45.80;;;;;;2310078;54;20922;-73
2022/07/06 03:31:56;;;;;;;1.90;0.73;;;18.90;45.80;;;;;;2311291;54;20945;-70
2022/07/06 03:34:22;;;;;;;1.80;0.80;;;18.80;45.80;;;;;;2550822;54;20969;-72
2022/07/06 03:36:48;;;;;;;2.00;0.82;;;18.80;45.80;;;;;;2311891;54;21008;-72
2022/07/06 03:39:15;;;;;;;1.48;0.68;;;18.90;45.90;;;;;;2311253;54;20937;-69
2022/07/06 03:41:41;;;;;;;1.80;0.80;;;18.80;45.90;;;;;;2311249;54;20976;-69
2022/07/06 03:44:08;;;;;;;2.60;1.00;;;18.80;46.00;;;;;;2309209;54;20941;-72
2022/07/06 03:46:37;;;;;;;1.83;0.80;;;18.80;46.10;;;;;;2550048;54;21436;-70
2022/07/06 03:49:04;;;;;;;2.35;0.82;;;18.80;46.20;;;;;;2319799;54;21091;-71
2022/07/06 03:51:31;;;;;;;2.17;0.90;;;18.80;46.20;;;;;;2318493;54;21776;-73
2022/07/06 03:53:57;;;;;;;2.33;0.80;;;18.80;46.30;;;;;;2311111;54;21028;-71
2022/07/06 03:56:29;;;;;;;2.42;1.15;;;18.80;46.40;;;;;;2310954;54;20949;-72
2022/07/06 03:59:04;;;;;;;1.87;0.80;;;18.80;46.50;;;;;;2309732;54;22039;-72
2022/07/06 04:01:31;;;;;;;1.90;0.90;;;18.80;47.00;;;;;;2524898;54;1341732;-70
2022/07/06 04:03:58;;;;;;;2.22;1.00;;;18.80;46.70;;;;;;2311551;54;20929;-71
2022/07/06 04:06:24;;;;;;;2.12;0.90;;;18.80;46.60;;;;;;2491794;54;20933;-71
2022/07/06 04:08:50;;;;;;;2.67;0.88;;;18.70;46.50;;;;;;2310855;54;21024;-71
2022/07/06 04:11:17;;;;;;;1.80;0.90;;;18.70;46.50;;;;;;2310553;54;20921;-70
2022/07/06 04:13:43;;;;;;;2.28;0.85;;;18.70;46.60;;;;;;2367277;54;21009;-72
2022/07/06 04:16:09;;;;;;;2.15;1.00;;;18.70;46.60;;;;;;2410853;54;20929;-70
2022/07/06 04:18:36;;;;;;;2.22;0.82;;;18.70;46.60;;;;;;2316986;54;21010;-71
2022/07/06 04:21:02;;;;;;;2.37;0.90;;;18.70;46.60;;;;;;2312537;54;21304;-69
2022/07/06 04:23:28;;;;;;;2.42;0.88;;;18.70;46.80;;;;;;2314971;54;21864;-72
2022/07/06 04:25:55;;;;;;;1.62;0.65;;;18.70;46.90;;;;;;2312023;54;20925;-70
2022/07/06 04:28:21;;;;;;;2.45;1.17;;;18.70;47.00;;;;;;2310874;54;20997;-69
2022/07/06 04:30:50;;;;;;;2.20;0.90;;;18.70;47.10;;;;;;2317948;54;21101;-69
2022/07/06 04:33:16;;;;;;;2.40;0.90;;;18.70;47.20;;;;;;2300522;55;21038;-72
2022/07/06 04:35:45;;;;;;;1.70;0.90;;;18.70;47.10;;;;;;2313642;54;20933;-69
2022/07/06 04:38:12;;;;;;;1.58;0.70;;;18.70;47.20;;;;;;2318406;54;20905;-71
2022/07/06 04:40:38;;;;;;;3.22;1.02;;;18.70;47.20;;;;;;2472509;54;21529;-68
2022/07/06 04:43:05;;;;;;;1.95;0.80;;;18.70;47.30;;;;;;2310269;54;20956;-68
2022/07/06 04:45:31;;;;;;;1.77;0.90;;;18.70;47.40;;;;;;2311204;54;21410;-69
2022/07/06 04:48:00;;;;;;;2.25;1.00;;;18.70;47.40;;;;;;2318542;54;20927;-70
2022/07/06 04:50:28;;;;;;;2.15;1.00;;;18.70;47.60;;;;;;2311593;54;20932;-68
2022/07/06 04:52:54;;;;;;;2.67;1.12;;;18.70;47.60;;;;;;2378975;54;21398;-69
2022/07/06 04:55:20;;;;;;;2.40;1.10;;;18.70;47.70;;;;;;2310668;54;20989;-73
2022/07/06 04:57:47;;;;;;;1.77;0.80;;;18.70;47.70;;;;;;2311037;54;20952;-72
2022/07/06 05:00:14;;;;;;;2.50;1.00;;;18.70;47.70;;;;;;2310739;54;20921;-70
2022/07/06 05:02:40;;;;;;;2.10;1.00;;;18.80;48.00;;;;;;2310935;54;21021;-72
2022/07/06 05:05:09;;;;;;;2.53;1.20;;;18.80;48.00;;;;;;2310947;54;20937;-69
2022/07/06 05:07:39;;;;;;;2.05;1.10;;;18.80;48.00;;;;;;2317437;54;20978;-71
2022/07/06 05:10:11;;;;;;;2.92;1.15;;;18.80;48.10;;;;;;2487277;54;21862;-72
2022/07/06 05:12:37;;;;;;;1.90;1.00;;;18.80;48.40;;;;;;2309436;54;21679;-70
2022/07/06 05:15:04;;;;;;;2.37;0.88;;;18.90;48.30;;;;;;2308821;54;20998;-73
2022/07/06 05:17:30;;;;;;;3.40;1.12;;;18.90;48.30;;;;;;2295968;54;21549;-72
2022/07/06 05:19:57;;;;;;;2.37;1.20;;;18.90;48.30;;;;;;2310738;54;21392;-72
2022/07/06 05:22:24;;;;;;;2.60;1.27;;;18.90;48.40;;;;;;2311369;54;21008;-70
2022/07/06 05:24:52;;;;;;;2.60;1.20;;;19.00;48.60;;;;;;2311124;54;21005;-71
2022/07/06 05:27:18;;;;;;;2.30;1.20;;;19.00;48.60;;;;;;2315769;54;20981;-72
2022/07/06 05:29:45;;;;;;;3.00;1.60;;;19.10;48.70;;;;;;2322219;54;20992;-70
2022/07/06 05:32:11;;;;;;;2.47;1.20;;;19.10;48.70;;;;;;2356311;54;20987;-69
2022/07/06 05:34:38;;;;;;;2.33;1.30;;;19.10;48.80;;;;;;2313564;54;20989;-72
2022/07/06 05:37:07;;;;;;;3.15;1.40;;;19.20;48.90;;;;;;2311473;54;21441;-69
2022/07/06 05:39:33;;;;;;;2.20;1.10;;;19.30;49.00;;;;;;2311809;54;21045;-71
2022/07/06 05:42:00;;;;;;;2.97;1.23;;;19.30;49.00;;;;;;2311472;54;21419;-69
2022/07/06 05:44:27;;;;;;;3.45;1.23;;;19.30;48.90;;;;;;2361102;54;21511;-73
2022/07/06 05:50:11;;;;;;;3.62;1.33;;;19.40;49.10;;;;;;2384688;54;20941;-70
2022/07/06 05:52:38;;;;;;;2.62;1.27;;;19.40;49.20;;;;;;2296244;55;21005;-70
2022/07/06 05:55:05;;;;;;;3.42;1.55;;;19.60;48.90;;;;;;2311490;54;20926;-71
2022/07/06 05:57:32;;;;;;;3.53;1.40;;;19.60;49.10;;;;;;2323215;54;20974;-73
2022/07/06 05:59:58;;;;;;;3.05;1.30;;;19.60;49.10;;;;;;2358442;54;21717;-72
2022/07/06 06:02:24;;;;;;;3.30;1.35;;;19.70;49.30;;;;;;2313429;54;20922;-72
2022/07/06 06:04:51;;;;;;;7.80;1.42;;;19.70;49.30;;;;;;2311496;54;21497;-72
2022/07/06 06:07:17;;;;;;;3.03;1.58;;;19.80;49.40;;;;;;2318370;54;21022;-71
2022/07/06 06:09:44;;;;;;;3.87;1.37;;;19.90;49.50;;;;;;2555581;54;21077;-71
2022/07/06 06:12:10;;;;;;;2.47;1.35;;;19.90;49.50;;;;;;2311746;54;21957;-69
2022/07/06 06:14:36;;;;;;;2.97;1.17;;;20.00;49.50;;;;;;2310418;54;20945;-72
2022/07/06 06:17:08;;;;;;;3.30;1.65;;;20.00;49.50;;;;;;2488212;54;21495;-70
2022/07/06 06:19:36;;;;;;;2.37;1.17;;;20.10;49.60;;;;;;2308201;54;20957;-67
2022/07/06 06:22:03;;;;;;;2.35;1.35;;;20.10;49.60;;;;;;2314921;54;20994;-68
2022/07/06 06:24:29;;;;;;;3.80;1.20;;;20.20;49.70;;;;;;2309312;54;21470;-70
2022/07/06 06:26:55;;;;;;;3.25;1.23;;;20.30;49.70;;;;;;2311838;54;20926;-69
2022/07/06 06:29:21;;;;;;;2.42;1.25;;;20.30;49.70;;;;;;2301143;54;21025;-70
2022/07/06 06:31:49;;;;;;;4.22;1.62;;;20.40;49.90;;;;;;2316664;54;21032;-69
2022/07/06 06:34:15;;;;;;;3.72;1.80;;;20.40;49.80;;;;;;2313717;54;20941;-67
2022/07/06 06:36:41;;;;;;;2.22;1.15;;;20.50;50.00;;;;;;2314089;54;20902;-71
2022/07/06 06:39:08;;;;;;;4.25;1.48;;;20.60;50.10;;;;;;2311745;54;20981;-69
2022/07/06 06:41:36;;;;;;;3.67;1.50;;;20.70;50.10;;;;;;2311330;54;20993;-67
2022/07/06 06:44:03;;;;;;;4.32;1.58;;;20.70;50.00;;;;;;2311524;54;21334;-70
2022/07/06 06:46:33;;;;;;;5.45;1.50;;;20.80;50.00;;;;;;2315395;54;20949;-71
2022/07/06 06:48:59;;;;;;;2.47;1.20;;;20.80;50.10;;;;;;2312823;54;20986;-70
2022/07/06 06:51:25;;;;;;;2.03;0.90;;;20.90;50.00;;;;;;2384345;54;21912;-69
2022/07/06 06:53:52;;;;;;;4.32;1.17;;;21.00;50.00;;;;;;2311406;54;21720;-67
2022/07/06 06:56:18;;;;;;;2.47;1.17;;;21.00;49.90;;;;;;2315416;54;20925;-71
2022/07/06 06:58:44;;;;;;;3.78;1.52;;;21.10;49.80;;;;;;2314183;54;21024;-70
2022/07/06 07:01:39;;;;;;;2.85;1.30;;;21.20;49.70;;;;;;2311478;54;21440;-67
2022/07/06 07:04:06;;;;;;;2.87;1.17;;;21.20;49.40;;;;;;2451552;54;21330;-70
2022/07/06 07:06:32;;;;;;;4.25;2.00;;;21.30;49.30;;;;;;2311274;54;21801;-69
2022/07/06 07:08:58;;;;;;;2.75;1.27;;;21.30;49.20;;;;;;2311329;54;20932;-67
2022/07/06 07:11:25;;;;;;;2.78;1.08;;;21.40;49.30;;;;;;2317656;54;21029;-72
2022/07/06 07:13:54;;;;;;;4.68;1.45;;;21.50;49.30;;;;;;2317881;54;20950;-69
2022/07/06 07:16:20;;;;;;;5.03;1.35;;;21.50;49.20;;;;;;2311751;54;20909;-69
2022/07/06 07:18:47;;;;;;;3.50;1.48;;;21.60;49.10;;;;;;2311535;54;20965;-71
2022/07/06 07:21:16;;;;;;;2.85;1.20;;;21.70;49.00;;;;;;2317695;54;20942;-69
2022/07/06 07:23:43;;;;;;;2.42;1.00;;;21.70;48.90;;;;;;2313781;54;21489;-68
2022/07/06 07:26:09;;;;;;;2.90;1.12;;;21.70;48.90;;;;;;2312509;54;21029;-70
2022/07/06 07:28:37;;;;;;;3.75;1.20;;;21.80;48.90;;;;;;2320144;54;20927;-70
2022/07/06 07:31:04;;;;;;;4.50;1.00;;;21.90;49.20;;;;;;2300359;54;21024;-70
2022/07/06 07:33:31;;;;;;;4.32;1.15;;;21.90;48.80;;;;;;2310640;54;20918;-69
2022/07/06 07:35:59;;;;;;;3.03;1.12;;;22.00;48.80;;;;;;2312070;54;21367;-70
2022/07/06 07:38:28;;;;;;;3.80;1.20;;;22.00;48.60;;;;;;2384222;54;21798;-68
2022/07/06 07:40:54;;;;;;;3.28;1.35;;;22.10;48.60;;;;;;2316633;54;20962;-70
2022/07/06 07:43:20;;;;;;;3.65;1.20;;;22.10;48.50;;;;;;2316108;54;22039;-71
2022/07/06 07:45:47;;;;;;;2.47;0.98;;;22.20;48.60;;;;;;2313257;54;20985;-71
2022/07/06 07:48:15;;;;;;;2.35;1.10;;;22.20;48.40;;;;;;2311390;54;20986;-71
2022/07/06 07:50:41;;;;;;;4.75;0.95;;;22.30;48.40;;;;;;2317954;54;21690;-68
2022/07/06 07:53:10;;;;;;;2.75;1.20;;;22.30;48.40;;;;;;2370939;54;21442;-69
2022/07/06 07:55:38;;;;;;;3.40;1.30;;;22.40;48.40;;;;;;2314543;54;20909;-71
2022/07/06 07:58:07;;;;;;;1.95;1.00;;;22.50;48.40;;;;;;2382751;54;20961;-68
2022/07/06 08:00:33;;;;;;;3.85;1.30;;;22.50;48.30;;;;;;2432682;54;20962;-70
2022/07/06 08:03:00;;;;;;;2.90;1.20;;;22.60;48.30;;;;;;2297720;54;20901;-69
2022/07/06 08:05:26;;;;;;;2.92;1.17;;;22.60;48.10;;;;;;2315932;54;21682;-68
2022/07/06 08:07:53;;;;;;;2.40;1.17;;;22.70;47.90;;;;;;2316991;54;20978;-70
2022/07/06 08:10:20;;;;;;;4.55;1.50;;;22.70;47.80;;;;;;2314419;54;20964;-70
2022/07/06 08:12:46;;;;;;;3.75;1.30;;;22.80;47.70;;;;;;2311655;54;20960;-70
2022/07/06 08:15:12;;;;;;;4.35;1.25;;;22.80;47.70;;;;;;2311248;54;20972;-69
2022/07/06 08:17:39;;;;;;;2.83;1.08;;;22.90;47.70;;;;;;2311029;54;20917;-70
2022/07/06 08:20:06;;;;;;;2.65;1.00;;;22.90;47.70;;;;;;2311332;54;20981;-69
2022/07/06 08:22:35;;;;;;;2.60;1.08;;;23.00;47.70;;;;;;2313266;54;21760;-70
2022/07/06 08:25:02;;;;;;;2.42;0.80;;;23.00;47.60;;;;;;2314797;54;21021;-69
2022/07/06 08:27:28;;;;;;;3.15;1.12;;;23.10;47.60;;;;;;2313673;54;21013;-70
2022/07/06 08:29:55;;;;;;;2.95;1.30;;;23.10;47.60;;;;;;2358753;54;21506;-69
2022/07/06 08:32:22;;;;;;;2.10;1.10;;;23.20;47.50;;;;;;2316296;54;20970;-69
2022/07/06 08:34:56;;;;;;;2.70;1.25;;;23.20;47.40;;;;;;2315300;54;21005;-69
2022/07/06 08:37:22;;;;;;;2.20;1.00;;;23.30;47.20;;;;;;2508397;54;20933;-69
2022/07/06 08:39:49;;;;;;;2.65;0.88;;;23.30;47.20;;;;;;2311628;54;20977;-68
2022/07/06 08:42:16;;;;;;;3.17;0.93;;;23.40;47.40;;;;;;2311483;54;20929;-70
2022/07/06 08:44:43;;;;;;;1.92;0.85;;;23.40;47.50;;;;;;2311007;54;20929;-70
2022/07/06 08:47:09;;;;;;;2.22;0.98;;;23.50;47.60;;;;;;2310817;54;21357;-70
2022/07/06 08:49:38;;;;;;;2.42;0.80;;;23.50;47.70;;;;;;2310406;54;20992;-70
2022/07/06 08:52:04;;;;;;;2.40;1.05;;;23.60;47.50;;;;;;2315368;54;21050;-69
2022/07/06 08:54:30;;;;;;;2.40;1.02;;;23.70;47.50;;;;;;2313601;54;20969;-69
2022/07/06 08:56:57;;;;;;;2.65;0.88;;;23.80;47.40;;;;;;2311147;54;20957;-70
2022/07/06 08:59:23;;;;;;;1.37;0.80;;;23.80;47.20;;;;;;2318819;54;20921;-69
2022/07/06 09:01:49;;;;;;;2.87;0.90;;;23.90;47.10;;;;;;2310808;54;20914;-70
2022/07/06 09:04:16;;;;;;;2.42;0.90;;;23.90;47.40;;;;;;2314766;54;20941;-70
2022/07/06 09:06:42;;;;;;;2.85;1.00;;;24.00;47.40;;;;;;2316524;54;20921;-69
2022/07/06 09:09:09;;;;;;;4.35;1.40;;;24.10;47.30;;;;;;2312152;54;22031;-69
2022/07/06 09:11:37;;;;;;;3.47;1.37;;;24.10;47.20;;;;;;2310704;54;20914;-71
2022/07/06 09:14:04;;;;;;;3.35;0.80;;;24.20;47.10;;;;;;2311397;54;21040;-70
2022/07/06 09:16:30;;;;;;;2.72;1.15;;;24.30;47.10;;;;;;2311568;54;20910;-71
2022/07/06 09:19:09;;;;;;;2.95;1.08;;;24.40;47.10;;;;;;2311589;54;20949;-70
2022/07/06 09:21:36;;;;;;;4.40;1.10;;;24.40;46.80;;;;;;2319962;54;20982;-69
2022/07/06 09:24:06;;;;;;;2.90;1.10;;;24.50;46.70;;;;;;2319440;54;20976;-70
2022/07/06 09:26:33;;;;;;;5.80;1.50;;;24.50;46.60;;;;;;2329395;54;20910;-70
2022/07/06 09:28:59;;;;;;;2.53;1.12;;;24.60;46.70;;;;;;2311162;54;20929;-70
2022/07/06 09:31:29;;;;;;;3.70;1.33;;;24.60;46.60;;;;;;2372351;54;20969;-71
2022/07/06 09:34:10;;;;;;;5.20;1.50;;;24.70;46.70;;;;;;2317819;54;20929;-69
2022/07/06 09:36:44;;;;;;;2.10;0.93;;;24.80;46.60;;;;;;2514607;54;20989;-70
2022/07/06 09:39:26;;;;;;;2.83;1.00;;;24.80;46.80;;;;;;2316623;54;21882;-70
2022/07/06 09:41:56;;;;;;;;;;;24.90;46.90;;;;;;2377336;54;21366;-71
2022/07/06 09:44:36;;;;;;;4.50;1.12;;;25.00;46.80;;;;;;2311278;54;20080;-70
2022/07/06 09:47:05;;;;;;;4.47;1.40;;;25.00;46.30;;;;;;2296043;55;21010;-70
2022/07/06 09:49:31;;;;;;;3.95;1.20;;;25.10;46.20;;;;;;2409607;54;21025;-72
2022/07/06 09:51:59;;;;;;;4.03;1.10;;;25.10;46.20;;;;;;2317772;54;20918;-71
2022/07/06 09:54:25;;;;;;;2.83;1.10;;;25.10;46.20;;;;;;2317801;54;21447;-71
2022/07/06 09:56:52;;;;;;;2.75;1.23;;;25.20;46.30;;;;;;2317533;54;20978;-71
2022/07/06 09:59:24;;;;;;;3.55;1.40;;;25.20;46.20;;;;;;2313443;54;21495;-71
2022/07/06 10:01:52;;;;;;;2.87;1.10;;;25.20;46.60;;;;;;2311665;54;21383;-71
2022/07/06 10:04:20;;;;;;;2.42;1.10;;;25.30;46.00;;;;;;2317894;54;20946;-70
2022/07/06 10:06:46;;;;;;;2.37;1.08;;;25.30;45.90;;;;;;2298705;55;21825;-70
2022/07/06 10:09:13;;;;;;;3.35;1.50;;;25.40;46.20;;;;;;2313421;54;21018;-71
2022/07/06 10:11:41;;;;;;;3.50;1.20;;;25.40;46.10;;;;;;2353525;54;20929;-71
2022/07/06 10:14:07;;;;;;;2.75;1.20;;;25.40;45.80;;;;;;2317022;54;20930;-71
2022/07/06 10:16:35;;;;;;;2.55;1.20;;;25.50;45.80;;;;;;2313562;54;20917;-72
2022/07/06 10:19:03;;;;;;;4.57;1.80;;;25.50;45.90;;;;;;2310522;54;21001;-70
2022/07/06 10:21:29;;;;;;;3.42;1.60;;;25.60;45.80;;;;;;2341677;54;20913;-71
2022/07/06 10:23:59;;;;;;;4.07;1.60;;;25.60;45.70;;;;;;2310385;54;21652;-71
2022/07/06 10:26:25;;;;;;;4.32;1.30;;;25.60;45.60;;;;;;2311293;54;21767;-71
2022/07/06 10:28:52;;;;;;;4.75;1.12;;;25.60;45.40;;;;;;2311067;54;20909;-69
2022/07/06 10:31:19;;;;;;;3.67;1.60;;;25.70;45.50;;;;;;2316573;54;20969;-72
2022/07/06 10:33:45;;;;;;;3.60;1.40;;;25.70;45.40;;;;;;2311211;54;21454;-71
2022/07/06 10:36:11;;;;;;;3.67;1.50;;;25.70;45.30;;;;;;2311069;54;21371;-70
2022/07/06 10:38:38;;;;;;;2.95;1.23;;;25.70;45.20;;;;;;2306997;54;20905;-70
2022/07/06 10:41:06;;;;;;;2.72;1.27;;;25.80;45.10;;;;;;2307382;54;21462;-69
2022/07/06 10:43:42;;;;;;;1.87;0.98;;;25.80;45.20;;;;;;2307946;54;20925;-71
2022/07/06 10:46:16;;;;;;;2.72;1.20;;;25.80;45.10;;;;;;2311797;54;21799;-70
2022/07/06 10:48:43;;;;;;;3.70;1.40;;;25.90;45.00;;;;;;2311519;54;20980;-70
2022/07/06 10:51:28;;;;;;;3.78;1.17;;;25.90;44.90;;;;;;2309498;54;20981;-69
2022/07/06 10:54:04;;;;;;;2.67;1.12;;;26.00;45.30;;;;;;2407496;55;21386;-69
2022/07/06 10:56:40;;;;;;;2.75;1.20;;;26.10;45.20;;;;;;2309181;54;20905;-69
2022/07/06 10:59:20;;;;;;;3.50;1.33;;;26.10;45.20;;;;;;2314665;54;20951;-71
2022/07/06 11:02:17;;;;;;;2.58;1.30;;;26.10;45.00;;;;;;2308288;54;20981;-70
2022/07/06 11:04:46;;;;;;;3.15;1.17;;;26.20;44.70;;;;;;2330514;54;20921;-71
2022/07/06 11:07:13;;;;;;;3.47;1.33;;;26.30;44.60;;;;;;2308933;54;21988;-70
2022/07/06 11:09:47;;;;;;;2.95;1.30;;;26.30;44.40;;;;;;2307502;54;20921;-70
2022/07/06 11:12:18;;;;;;;3.78;1.35;;;26.30;44.30;;;;;;2308307;54;20929;-68
2022/07/06 11:14:44;;;;;;;2.70;1.02;;;26.40;44.30;;;;;;2327748;54;20964;-69
2022/07/06 11:17:11;;;;;;;3.78;1.20;;;26.40;44.30;;;;;;2306870;54;21049;-69
2022/07/06 11:19:38;;;;;;;2.30;1.23;;;26.40;44.50;;;;;;2437961;54;21391;-71
2022/07/06 11:22:08;;;;;;;2.65;1.20;;;26.40;44.40;;;;;;2306856;54;20932;-69
2022/07/06 11:24:39;;;;;;;2.53;1.10;;;26.50;44.20;;;;;;2312883;54;21384;-68
2022/07/06 11:27:06;;;;;;;2.37;0.90;;;26.50;43.90;;;;;;2300944;54;20974;-69
2022/07/06 11:29:34;;;;;;;2.78;1.15;;;26.50;44.00;;;;;;2295787;54;21016;-70
2022/07/06 11:32:03;;;;;;;2.42;0.95;;;26.50;44.30;;;;;;2304392;54;20988;-68
2022/07/06 11:34:39;;;;;;;2.20;1.10;;;26.60;45.00;;;;;;2304693;54;21529;-69
2022/07/06 11:37:07;;;;;;;2.60;1.20;;;26.70;44.20;;;;;;2306810;54;21076;-71
2022/07/06 11:39:39;;;;;;;3.50;1.30;;;26.70;44.00;;;;;;2306694;54;21007;-69
2022/07/06 11:42:06;;;;;;;4.10;1.10;;;26.70;43.70;;;;;;2338100;54;22605;-69
2022/07/06 11:44:33;;;;;;;2.75;1.25;;;26.70;43.60;;;;;;2362102;54;21263;-68
2022/07/06 11:47:03;;;;;;;2.08;0.90;;;26.70;43.50;;;;;;2309050;54;20925;-70
2022/07/06 11:49:30;;;;;;;2.47;1.00;;;26.70;43.60;;;;;;2309392;54;20912;-71
2022/07/06 11:51:56;;;;;;;2.70;1.33;;;26.80;43.50;;;;;;2309166;54;20917;-70
2022/07/06 11:54:23;;;;;;;2.80;0.98;;;26.80;43.40;;;;;;2345045;54;21386;-71
2022/07/06 11:56:53;;;;;;;3.08;1.05;;;26.80;43.30;;;;;;2317068;54;20922;-72
2022/07/06 11:59:24;;;;;;;9.57;1.30;;;26.90;43.40;;;;;;2310810;54;21002;-69
2022/07/06 12:01:57;;;;;;;3.42;1.25;;;26.90;43.00;;;;;;2344952;54;21819;-69
2022/07/06 12:04:24;;;;;;;2.83;1.02;;;26.90;43.00;;;;;;2446772;54;20997;-68
2022/07/06 12:06:50;;;;;;;2.70;1.23;;;26.90;42.70;;;;;;2309075;54;20968;-71
2022/07/06 12:09:17;;;;;;;2.47;1.27;;;26.90;42.50;;;;;;2314260;54;21221;-69
2022/07/06 12:11:46;;;;;;;2.58;1.10;;;26.90;42.30;;;;;;2421227;54;20922;-69
2022/07/06 12:14:16;;;;;;;2.20;0.82;;;26.90;42.40;;;;;;2309919;54;20942;-72
2022/07/06 12:16:43;;;;;;;3.00;1.00;;;26.90;42.70;;;;;;2415224;54;20952;-70
2022/07/06 12:19:11;;;;;;;2.78;1.08;;;26.90;42.70;;;;;;2314050;54;21006;-70
2022/07/06 12:21:42;;;;;;;2.70;1.20;;;26.90;42.60;;;;;;2309748;54;20941;-72
2022/07/06 12:24:08;;;;;;;2.42;0.88;;;27.00;42.40;;;;;;2315341;54;22137;-71
2022/07/06 12:26:41;;;;;;;2.62;0.85;;;27.00;42.60;;;;;;2315198;54;20970;-71
2022/07/06 12:29:09;;;;;;;2.90;1.17;;;27.00;42.50;;;;;;2422647;54;21028;-70
2022/07/06 12:31:37;;;;;;;2.60;1.10;;;27.00;42.40;;;;;;2318488;54;20993;-70
2022/07/06 12:34:04;;;;;;;2.05;1.00;;;27.10;42.40;;;;;;2308443;54;21135;-69
2022/07/06 12:36:30;;;;;;;2.53;1.00;;;27.10;42.30;;;;;;2309117;54;20917;-71
2022/07/06 12:38:59;;;;;;;2.65;1.27;;;27.10;42.20;;;;;;2308753;54;21517;-71
2022/07/06 12:41:33;;;;;;;3.17;1.00;;;27.10;42.20;;;;;;2319273;54;21511;-69
2022/07/06 12:44:01;;;;;;;1.92;0.80;;;27.10;42.10;;;;;;2300462;54;21009;-70
2022/07/06 12:46:35;;;;;;;2.70;0.82;;;27.20;42.30;;;;;;2478978;54;21587;-71
2022/07/06 12:49:19;;;;;;;1.77;0.80;;;27.20;42.30;;;;;;2319606;54;21029;-70
2022/07/06 12:52:03;;;;;;;1.83;0.90;;;27.20;41.70;;;;;;2298745;54;20956;-69
2022/07/06 12:54:31;;;;;;;2.12;0.90;;;27.20;41.80;;;;;;2314486;54;20978;-71